ADDS METAR Data INFO
IDs: Format: Raw Decoded Include TAF

Data at: 0128 UTC 23 Nov 2017

METAR for:PAKF (False Pass Arpt, AK, US)
Text:PAKF 230101Z AUTO 28033G51KT 10SM 07/01 A2948 RMK AO2 PK WND 28053/0046 RAE0007B0044E0055 SLP078 P0001 T00720006
Temperature: 7.2°C ( 45°F)
Dewpoint: 0.6°C ( 33°F) [RH = 63%]
Pressure (altimeter):29.48 inches Hg ( 998.4 mb) [Sea level pressure: 1007.8 mb]
Winds:from the W (280 degrees) at 38 MPH (33 knots; 17.0 m/s) gusting to 59 MPH (51 knots; 26.2 m/s)
Visibility:10 or more sm (16+ km)
QC Flag:automated observation with no human augmentation
Text:PAKF 230001Z AUTO 29031G52KT 5SM -RA 08/03 A2948 RMK AO2 PK WND 29052/2354 WSHFT 2235 RAE23222335B2314 SLP076 P0000 60050 T00780028 10122 20056 56056 $
Temperature: 7.8°C ( 46°F)
Dewpoint: 2.8°C ( 37°F) [RH = 71%]
Pressure (altimeter):29.48 inches Hg ( 998.4 mb) [Sea level pressure: 1007.6 mb]
Winds:from the WNW (290 degrees) at 36 MPH (31 knots; 15.9 m/s) gusting to 60 MPH (52 knots; 26.7 m/s)
Visibility: 5 sm ( 8 km)
Weather:-RA (light rain)
QC Flag:automated observation with no human augmentation; SOME DATA ABOVE MAY BE INACCURATE!!!"$" is an indication the sensor requires maintenance.
Text:PAKF 222301Z AUTO 29030G43KT 10SM SCT042 11/04 A2950 RMK AO2 PK WND 29043/2257 WSHFT 2235 RAE2235 P0000
Temperature: 11.0°C ( 52°F)
Dewpoint: 4.0°C ( 39°F) [RH = 62%]
Pressure (altimeter):29.50 inches Hg ( 999.1 mb)
Winds:from the WNW (290 degrees) at 34 MPH (30 knots; 15.4 m/s) gusting to 49 MPH (43 knots; 22.1 m/s)
Visibility:10 or more sm (16+ km)
Ceiling:at least 12,000 feet AGL
Clouds: scattered clouds at 4200 feet AGL
QC Flag:automated observation with no human augmentation
Text:PAKF 222201Z AUTO 17017G26KT 10SM -RA OVC055 08/04 A2950 RMK AO2 PK WND 22039/2103 RAE2102B2123 PRESFR SLP084 P0000 T00830044
Temperature: 8.3°C ( 47°F)
Dewpoint: 4.4°C ( 40°F) [RH = 76%]
Pressure (altimeter):29.50 inches Hg ( 999.1 mb) [Sea level pressure: 1008.4 mb]
Winds:from the S (170 degrees) at 20 MPH (17 knots; 8.7 m/s) gusting to 30 MPH (26 knots; 13.4 m/s)
Visibility:10 or more sm (16+ km)
Ceiling:5500 feet AGL
Clouds: overcast cloud deck at 5500 feet AGL
Weather:-RA (light rain)
QC Flag:automated observation with no human augmentation
Text:PAKF 222124Z AUTO 20018G28KT 10SM -RA SCT021 OVC060 08/04 A2956 RMK AO2 PK WND 22039/2103 RAE02B23 P0000
Temperature: 8.0°C ( 46°F)
Dewpoint: 4.0°C ( 39°F) [RH = 76%]
Pressure (altimeter):29.56 inches Hg (1001.1 mb)
Winds:from the SSW (200 degrees) at 21 MPH (18 knots; 9.3 m/s) gusting to 32 MPH (28 knots; 14.4 m/s)
Visibility:10 or more sm (16+ km)
Ceiling:6000 feet AGL
Clouds: scattered clouds at 2100 feet AGL, overcast cloud deck at 6000 feet AGL
Weather:-RA (light rain)
QC Flag:automated observation with no human augmentation
Text:PAKF 222101Z AUTO 22015G30KT 10SM -RA BKN021 OVC070 07/03 A2958 RMK AO2 PK WND 21038/1907 SLP110 P0015 60052 T00670033 58018
Temperature: 6.7°C ( 44°F)
Dewpoint: 3.3°C ( 38°F) [RH = 79%]
Pressure (altimeter):29.58 inches Hg (1001.8 mb) [Sea level pressure: 1011.0 mb]
Winds:from the SW (220 degrees) at 17 MPH (15 knots; 7.7 m/s) gusting to 34 MPH (30 knots; 15.4 m/s)
Visibility:10 or more sm (16+ km)
Ceiling:2100 feet AGL
Clouds: broken clouds at 2100 feet AGL, overcast cloud deck at 7000 feet AGL
Weather:-RA (light rain)
QC Flag:automated observation with no human augmentation
Text:PAKF 222011Z AUTO 20022G29KT 3SM -RA BKN017 OVC023 06/03 A2966 RMK AO2 PK WND 21038/1907 P0015
Temperature: 6.0°C ( 43°F)
Dewpoint: 3.0°C ( 37°F) [RH = 81%]
Pressure (altimeter):29.66 inches Hg (1004.5 mb)
Winds:from the SSW (200 degrees) at 25 MPH (22 knots; 11.3 m/s) gusting to 33 MPH (29 knots; 14.9 m/s)
Visibility: 3 sm ( 5 km)
Ceiling:1700 feet AGL
Clouds: broken clouds at 1700 feet AGL, overcast cloud deck at 2300 feet AGL
Weather:-RA (light rain)
QC Flag:automated observation with no human augmentation
Text:PAKF 222001Z AUTO 20021G31KT 170V240 2SM -RA FEW013 OVC021 06/03 A2967 RMK AO2 PK WND 21038/1907 VIS 1 3/4V3 P0014
Temperature: 6.0°C ( 43°F)
Dewpoint: 3.0°C ( 37°F) [RH = 81%]
Pressure (altimeter):29.67 inches Hg (1004.8 mb)
Winds:from the SSW (200 degrees) at 24 MPH (21 knots; 10.8 m/s) gusting to 36 MPH (31 knots; 15.9 m/s)
Visibility: 2.00 sm ( 3.22 km)
Ceiling:2100 feet AGL
Clouds: few clouds at 1300 feet AGL, overcast cloud deck at 2100 feet AGL
Weather:-RA (light rain)
QC Flag:automated observation with no human augmentation
Text:PAKF 221940Z AUTO 20023G34KT 1 1/2SM -RA BR BKN017 OVC022 05/03 A2969 RMK AO2 PK WND 21038/1907 P0010
Temperature: 5.0°C ( 41°F)
Dewpoint: 3.0°C ( 37°F) [RH = 87%]
Pressure (altimeter):29.69 inches Hg (1005.5 mb)
Winds:from the SSW (200 degrees) at 26 MPH (23 knots; 11.8 m/s) gusting to 39 MPH (34 knots; 17.5 m/s)
Visibility: 1.50 sm ( 2.41 km)
Ceiling:1700 feet AGL
Clouds: broken clouds at 1700 feet AGL, overcast cloud deck at 2200 feet AGL
Weather:-RA BR (light rain, mist)
QC Flag:automated observation with no human augmentation

TAF for:PAKF (False Pass Arpt, AK, US)
Text:No data found